Time;durP1;ratioP1;P1;durP2;ratioP2;P2;SDS_P1;SDS_P2;PMS_P1;PMS_P2;Temp;Humidity;BMP_temperature;BMP_pressure;BME280_temperature;BME280_humidity;BME280_pressure;Samples;Min_cycle;Max_cycle;Signal;HPM_P1;HPM_P2
2023/05/24 00:02:16;;;;;;;13.25;3.30;;;;;;;7.87;100.00;102315.59;5266226;28;20027;-66
2023/05/24 00:04:48;;;;;;;11.50;4.38;;;;;;;7.90;100.00;102310.16;5264019;28;20067;-66
2023/05/24 00:07:19;;;;;;;9.48;3.10;;;;;;;7.87;100.00;102315.59;5295864;27;20047;-67
2023/05/24 00:09:50;;;;;;;12.68;3.58;;;;;;;7.88;100.00;102305.81;5287378;28;20030;-66
2023/05/24 00:12:22;;;;;;;12.05;3.33;;;;;;;7.81;100.00;102307.88;5308075;27;20386;-66
2023/05/24 00:14:53;;;;;;;10.13;3.60;;;;;;;7.79;100.00;102307.09;5309345;27;20035;-66
2023/05/24 00:17:25;;;;;;;11.73;3.63;;;;;;;7.83;100.00;102301.56;5307392;27;20061;-67
2023/05/24 00:19:57;;;;;;;12.77;3.75;;;;;;;7.81;100.00;102290.13;5305118;27;20726;-66
2023/05/24 00:22:28;;;;;;;12.25;3.90;;;;;;;7.78;100.00;102289.41;5305132;28;20548;-66
2023/05/24 00:24:59;;;;;;;7.57;3.13;;;;;;;7.72;100.00;102284.34;5307702;27;20629;-66
2023/05/24 00:27:31;;;;;;;12.80;5.00;;;;;;;7.71;100.00;102286.16;5304954;28;20450;-66
2023/05/24 00:30:04;;;;;;;10.55;3.55;;;;;;;7.61;100.00;102282.13;5303332;28;20535;-67
2023/05/24 00:32:35;;;;;;;11.73;3.90;;;;;;;7.61;100.00;102283.00;5307667;28;20506;-66
2023/05/24 00:35:07;;;;;;;11.48;3.83;;;;;;;7.58;100.00;102285.78;5303612;27;20032;-66
2023/05/24 00:37:40;;;;;;;11.68;3.38;;;;;;;7.51;100.00;102280.78;5304304;27;20035;-66
2023/05/24 00:40:12;;;;;;;9.60;3.13;;;;;;;7.46;100.00;102275.66;5299029;27;20020;-66
2023/05/24 00:42:43;;;;;;;13.75;3.60;;;;;;;7.43;100.00;102276.63;5296594;28;20084;-66
2023/05/24 00:45:15;;;;;;;11.77;3.55;;;;;;;7.36;100.00;102272.47;5300060;28;20085;-66
2023/05/24 00:47:46;;;;;;;12.57;3.50;;;;;;;7.32;100.00;102275.34;5315586;27;20110;-67
2023/05/24 00:50:19;;;;;;;14.98;4.10;;;;;;;7.34;100.00;102284.09;5299798;28;20031;-67
2023/05/24 00:52:51;;;;;;;13.20;3.78;;;;;;;7.29;100.00;102270.13;5300452;28;20024;-66
2023/05/24 00:55:22;;;;;;;9.90;3.58;;;;;;;7.22;100.00;102280.16;5304219;28;20039;-67
2023/05/24 00:57:56;;;;;;;11.38;3.75;;;;;;;7.14;100.00;102272.47;5302395;28;20469;-66
2023/05/24 01:00:28;;;;;;;8.98;3.63;;;;;;;7.12;100.00;102277.00;5297450;28;20020;-66
2023/05/24 01:02:59;;;;;;;14.43;3.80;;;;;;;7.13;100.00;102275.19;5297284;28;20031;-66
2023/05/24 01:05:32;;;;;;;14.48;4.15;;;;;;;7.11;100.00;102267.28;5299924;28;20055;-66
2023/05/24 01:08:14;;;;;;;11.57;3.60;;;;;;;7.17;100.00;102275.03;5309266;28;20055;-66
2023/05/24 01:11:27;;;;;;;10.88;3.90;;;;;;;7.28;100.00;102273.72;5307981;28;20051;-66
2023/05/24 01:14:16;;;;;;;10.98;3.75;;;;;;;7.17;100.00;102271.50;5243495;28;20043;-66
2023/05/24 01:17:16;;;;;;;14.55;4.68;;;;;;;7.11;100.00;102269.94;5307564;28;20122;-66
2023/05/24 01:19:47;;;;;;;10.00;4.05;;;;;;;7.01;100.00;102261.47;5307022;28;20035;-66
2023/05/24 01:22:41;;;;;;;13.45;3.55;;;;;;;6.95;100.00;102261.72;5312564;28;20350;-66
2023/05/24 01:25:42;;;;;;;11.93;4.20;;;;;;;6.98;100.00;102261.59;5307028;28;20034;-66
2023/05/24 01:28:16;;;;;;;11.93;4.45;;;;;;;6.96;100.00;102255.50;5308241;28;22097;-66
2023/05/24 01:30:47;;;;;;;11.02;4.03;;;;;;;6.94;100.00;102257.34;5305089;28;20116;-66
2023/05/24 01:33:19;;;;;;;16.92;4.95;;;;;;;6.89;100.00;102261.09;5305115;28;20035;-66
2023/05/24 01:35:51;;;;;;;11.05;4.07;;;;;;;6.84;100.00;102255.94;5300957;28;20023;-66
2023/05/24 01:38:22;;;;;;;15.45;4.20;;;;;;;6.86;100.00;102262.06;5298878;28;20066;-66
2023/05/24 01:41:04;;;;;;;11.50;4.85;;;;;;;6.86;100.00;102264.72;5297802;28;20110;-66
2023/05/24 01:43:47;;;;;;;14.23;5.65;;;;;;;6.84;100.00;102259.47;5297134;28;20208;-66
2023/05/24 01:46:32;;;;;;;13.00;4.10;;;;;;;6.80;100.00;102257.84;5300693;28;20031;-67
2023/05/24 01:49:12;;;;;;;12.68;3.88;;;;;;;6.80;100.00;102254.34;5301660;28;20108;-66
2023/05/24 01:51:50;;;;;;;15.15;4.65;;;;;;;6.89;100.00;102255.78;5298570;27;20048;-67
2023/05/24 01:54:24;;;;;;;15.27;4.72;;;;;;;6.91;100.00;102251.28;5300090;27;20098;-66
2023/05/24 01:56:56;;;;;;;;;;;;;;;6.99;100.00;102241.25;5305864;27;20023;-66
2023/05/24 01:59:30;;;;;;;13.77;4.07;;;;;;;6.83;100.00;102255.09;5302781;27;19923;-66
2023/05/24 02:02:02;;;;;;;13.27;5.07;;;;;;;6.88;100.00;102260.22;5299472;27;20038;-66
2023/05/24 02:04:33;;;;;;;14.20;4.43;;;;;;;6.78;100.00;102256.19;5306327;27;20023;-66
2023/05/24 02:07:05;;;;;;;12.95;4.60;;;;;;;6.74;100.00;102257.22;5316012;27;20038;-66
2023/05/24 02:09:36;;;;;;;16.10;5.05;;;;;;;6.74;100.00;102260.75;5309382;27;20030;-66
2023/05/24 02:12:08;;;;;;;11.68;4.75;;;;;;;6.77;100.00;102265.06;5313839;27;20090;-66
2023/05/24 02:14:41;;;;;;;15.05;4.28;;;;;;;6.79;100.00;102260.59;5313966;27;20110;-66
2023/05/24 02:17:13;;;;;;;9.75;4.20;;;;;;;6.69;100.00;102265.34;5308036;27;20153;-66
2023/05/24 02:19:44;;;;;;;17.23;4.88;;;;;;;6.65;100.00;102267.28;5308960;27;20374;-66
2023/05/24 02:22:16;;;;;;;17.25;5.22;;;;;;;6.63;100.00;102274.38;5304075;27;20046;-67
2023/05/24 02:24:47;;;;;;;18.80;5.07;;;;;;;6.55;100.00;102272.97;5304066;27;20508;-66
2023/05/24 02:27:19;;;;;;;14.23;5.03;;;;;;;6.45;100.00;102275.94;5305746;27;20027;-66
2023/05/24 02:29:51;;;;;;;16.00;5.38;;;;;;;6.43;100.00;102261.88;5295490;27;20024;-66
2023/05/24 02:32:23;;;;;;;12.68;4.72;;;;;;;6.39;100.00;102273.53;5310630;27;20304;-66
2023/05/24 02:34:54;;;;;;;13.98;4.68;;;;;;;6.40;100.00;102274.38;5310479;27;20020;-67
2023/05/24 02:37:26;;;;;;;16.55;5.30;;;;;;;6.34;100.00;102275.47;5313781;27;20030;-66
2023/05/24 02:39:58;;;;;;;14.07;4.60;;;;;;;6.38;100.00;102276.22;5305753;27;20481;-66
2023/05/24 02:42:29;;;;;;;12.25;4.72;;;;;;;6.34;100.00;102269.31;5307477;27;20437;-67
2023/05/24 02:45:01;;;;;;;12.02;4.55;;;;;;;6.25;100.00;102268.72;5309104;27;20015;-66
2023/05/24 02:47:32;;;;;;;15.25;4.88;;;;;;;6.33;100.00;102264.91;5313035;27;20031;-66
2023/05/24 02:50:05;;;;;;;12.43;4.70;;;;;;;6.40;100.00;102275.22;5304940;27;20150;-66
2023/05/24 02:52:36;;;;;;;13.88;4.53;;;;;;;6.39;100.00;102278.81;5296170;27;20112;-66
2023/05/24 02:55:08;;;;;;;18.00;5.30;;;;;;;6.42;100.00;102278.72;5298639;27;20028;-66
2023/05/24 02:57:40;;;;;;;14.57;4.82;;;;;;;6.34;100.00;102280.75;5314541;27;20032;-66
2023/05/24 03:00:12;;;;;;;13.13;4.88;;;;;;;6.31;100.00;102280.88;5314451;28;20103;-67
2023/05/24 03:02:46;;;;;;;14.65;5.20;;;;;;;6.26;100.00;102275.72;5301137;27;20120;-66
2023/05/24 03:05:17;;;;;;;11.27;4.50;;;;;;;6.25;100.00;102273.13;5301566;27;20037;-66
2023/05/24 03:07:49;;;;;;;11.20;4.97;;;;;;;6.20;100.00;102277.75;5265070;27;20523;-66
2023/05/24 03:10:20;;;;;;;17.13;5.15;;;;;;;6.29;100.00;102277.44;5260379;28;20029;-66
2023/05/24 03:12:51;;;;;;;16.10;4.95;;;;;;;6.22;100.00;102273.25;5266846;28;20051;-66
2023/05/24 03:15:23;;;;;;;13.43;5.28;;;;;;;6.30;100.00;102279.16;5255251;28;20025;-66
2023/05/24 03:17:54;;;;;;;13.00;4.85;;;;;;;6.28;100.00;102270.38;5256661;28;20036;-66
2023/05/24 03:20:26;;;;;;;17.70;5.82;;;;;;;6.21;100.00;102269.75;5257739;28;20699;-66
2023/05/24 03:22:58;;;;;;;17.67;5.88;;;;;;;6.33;100.00;102275.50;5257360;28;20021;-66
2023/05/24 03:25:29;;;;;;;11.70;5.22;;;;;;;6.25;100.00;102271.38;5264343;28;20071;-67
2023/05/24 03:28:01;;;;;;;18.92;5.28;;;;;;;6.34;100.00;102270.16;5261920;28;20021;-66
2023/05/24 03:30:32;;;;;;;15.75;5.13;;;;;;;6.28;100.00;102263.28;5261548;28;20558;-66
2023/05/24 03:33:04;;;;;;;14.43;5.90;;;;;;;6.33;100.00;102268.44;5268844;28;20955;-67
2023/05/24 03:35:35;;;;;;;15.05;5.70;;;;;;;6.39;100.00;102270.88;5255709;28;20056;-68
2023/05/24 03:38:06;;;;;;;21.45;6.35;;;;;;;6.51;100.00;102264.25;5253711;28;20028;-66
2023/05/24 03:40:38;;;;;;;19.17;5.53;;;;;;;6.30;100.00;102263.25;5260221;28;20051;-66
2023/05/24 03:43:09;;;;;;;14.73;5.15;;;;;;;6.28;100.00;102265.09;5252376;28;20025;-66
2023/05/24 03:45:41;;;;;;;18.17;5.72;;;;;;;6.24;100.00;102268.75;5261188;28;20024;-66
2023/05/24 03:48:12;;;;;;;14.15;5.25;;;;;;;6.30;100.00;102267.69;5259094;28;20719;-66
2023/05/24 03:50:43;;;;;;;17.73;6.90;;;;;;;6.19;100.00;102270.69;5257778;28;20068;-66
2023/05/24 03:53:15;;;;;;;16.00;5.32;;;;;;;6.33;100.00;102259.59;5256944;28;20060;-66
2023/05/24 03:55:46;;;;;;;16.60;5.05;;;;;;;6.17;100.00;102272.53;5255820;28;20073;-66
2023/05/24 03:58:17;;;;;;;16.30;5.55;;;;;;;6.16;100.00;102266.38;5259863;28;20074;-66
2023/05/24 04:00:49;;;;;;;13.23;5.25;;;;;;;6.13;100.00;102263.81;5260144;28;20143;-68
2023/05/24 04:03:20;;;;;;;14.23;5.30;;;;;;;6.12;100.00;102264.78;5260021;28;20162;-66
2023/05/24 04:05:52;;;;;;;17.30;6.32;;;;;;;6.11;100.00;102264.81;5255609;28;20071;-66
2023/05/24 04:08:24;;;;;;;14.73;5.47;;;;;;;6.12;100.00;102271.81;5258956;28;20024;-66
2023/05/24 04:10:55;;;;;;;19.50;5.97;;;;;;;6.23;100.00;102270.56;5254462;28;20074;-66
2023/05/24 04:13:28;;;;;;;19.08;6.32;;;;;;;6.09;100.00;102252.47;5256115;28;20506;-66
2023/05/24 04:15:59;;;;;;;16.05;5.93;;;;;;;6.09;100.00;102257.78;5261254;28;20115;-66
2023/05/24 04:18:31;;;;;;;21.50;6.85;;;;;;;6.11;100.00;102262.16;5264425;28;20043;-66
2023/05/24 04:21:02;;;;;;;18.30;6.88;;;;;;;6.09;100.00;102276.31;5264910;28;20387;-66
2023/05/24 04:23:33;;;;;;;15.10;6.25;;;;;;;6.06;100.00;102270.28;5265064;28;20025;-66
2023/05/24 04:26:06;;;;;;;19.35;6.13;;;;;;;6.11;100.00;102280.72;5266218;28;20491;-67
2023/05/24 04:28:37;;;;;;;18.92;5.85;;;;;;;6.07;100.00;102272.00;5264696;28;20367;-66
2023/05/24 04:31:10;;;;;;;15.63;6.70;;;;;;;6.07;100.00;102278.16;5291523;28;20049;-66
2023/05/24 04:33:41;;;;;;;18.48;6.10;;;;;;;6.13;100.00;102268.28;5265291;28;20394;-66
2023/05/24 04:36:13;;;;;;;17.23;6.88;;;;;;;6.14;100.00;102270.03;5259089;28;20033;-66
2023/05/24 04:38:45;;;;;;;23.08;7.97;;;;;;;6.14;100.00;102277.97;5264665;28;20025;-66
2023/05/24 04:41:16;;;;;;;22.17;6.57;;;;;;;6.13;100.00;102276.22;5262701;28;20423;-66
2023/05/24 04:43:47;;;;;;;19.00;6.32;;;;;;;6.16;100.00;102273.47;5266907;28;20159;-66
2023/05/24 04:46:19;;;;;;;18.77;6.82;;;;;;;6.18;100.00;102271.63;5260195;28;20090;-66
2023/05/24 04:48:50;;;;;;;21.90;6.57;;;;;;;6.19;100.00;102276.84;5264606;28;20029;-66
2023/05/24 04:51:22;;;;;;;15.45;6.05;;;;;;;6.21;100.00;102269.75;5261211;28;20473;-66
2023/05/24 04:53:53;;;;;;;17.48;6.57;;;;;;;6.24;100.00;102277.56;5268662;28;20044;-66
2023/05/24 04:56:25;;;;;;;15.95;6.07;;;;;;;6.28;100.00;102281.84;5271585;28;20040;-67
2023/05/24 04:58:56;;;;;;;20.73;7.15;;;;;;;6.32;100.00;102279.94;5262915;28;20048;-66
2023/05/24 05:01:27;;;;;;;18.80;6.50;;;;;;;6.34;100.00;102283.41;5265975;28;20047;-68
2023/05/24 05:03:59;;;;;;;16.30;6.40;;;;;;;6.37;100.00;102282.47;5262034;28;20114;-66
2023/05/24 05:06:33;;;;;;;19.48;6.60;;;;;;;6.42;100.00;102277.84;5278915;28;20070;-66
2023/05/24 05:09:09;;;;;;;16.90;5.82;;;;;;;6.44;100.00;102281.28;5305849;28;20026;-66
2023/05/24 05:11:40;;;;;;;26.70;7.93;;;;;;;6.52;100.00;102276.59;5310571;28;20031;-66
2023/05/24 05:14:12;;;;;;;30.48;7.97;;;;;;;6.58;100.00;102279.03;5318600;28;20599;-66
2023/05/24 05:16:45;;;;;;;24.60;8.40;;;;;;;6.62;100.00;102280.63;5305726;28;20096;-66
2023/05/24 05:19:16;;;;;;;35.88;9.18;;;;;;;6.68;100.00;102279.53;5304619;28;20447;-66
2023/05/24 05:21:47;;;;;;;96.65;17.70;;;;;;;6.75;100.00;102283.72;5304835;28;20028;-68
2023/05/24 05:24:19;;;;;;;64.18;13.13;;;;;;;6.81;100.00;102287.91;5302128;28;20031;-66
2023/05/24 05:26:50;;;;;;;33.17;8.95;;;;;;;6.85;100.00;102285.09;5308789;27;20848;-66
2023/05/24 05:29:22;;;;;;;35.20;9.05;;;;;;;6.92;100.00;102283.03;5312664;28;20031;-66
2023/05/24 05:31:54;;;;;;;26.52;8.15;;;;;;;6.98;100.00;102289.91;5318368;27;20042;-66
2023/05/24 05:34:25;;;;;;;29.15;7.32;;;;;;;7.05;100.00;102294.06;5305382;27;20039;-66
2023/05/24 05:36:57;;;;;;;30.15;8.35;;;;;;;7.15;100.00;102289.25;5309506;27;20031;-66
2023/05/24 05:39:30;;;;;;;25.85;8.73;;;;;;;7.18;100.00;102287.34;5313646;27;20076;-66
2023/05/24 05:42:02;;;;;;;24.48;7.70;;;;;;;7.26;100.00;102279.09;5315006;28;20107;-66
2023/05/24 05:44:33;;;;;;;23.77;7.32;;;;;;;7.34;100.00;102286.75;5310107;27;20060;-66
2023/05/24 05:47:06;;;;;;;26.77;8.30;;;;;;;7.37;100.00;102281.34;5314444;28;20114;-66
2023/05/24 05:49:37;;;;;;;84.40;14.48;;;;;;;7.44;100.00;102286.34;5320268;28;20531;-66
2023/05/24 05:52:08;;;;;;;35.85;9.43;;;;;;;7.52;100.00;102291.34;5308293;27;20036;-66
2023/05/24 05:54:40;;;;;;;33.05;9.48;;;;;;;7.58;100.00;102285.78;5304157;27;20027;-66
2023/05/24 05:57:11;;;;;;;51.42;10.43;;;;;;;7.65;100.00;102291.69;5307941;28;20046;-66
2023/05/24 05:59:43;;;;;;;24.90;8.52;;;;;;;7.71;100.00;102291.47;5305798;27;20035;-66
2023/05/24 06:02:14;;;;;;;54.35;11.57;;;;;;;7.80;100.00;102295.50;5307870;28;20502;-66
2023/05/24 06:04:45;;;;;;;25.00;8.27;;;;;;;7.90;100.00;102294.22;5307277;27;20627;-66
2023/05/24 06:07:17;;;;;;;27.17;8.52;;;;;;;7.93;100.00;102298.53;5317123;27;20059;-66
2023/05/24 06:09:48;;;;;;;25.90;8.75;;;;;;;8.05;100.00;102303.31;5315704;27;20070;-66
2023/05/24 06:12:20;;;;;;;23.90;8.02;;;;;;;8.13;100.00;102305.66;5311598;27;20032;-66
2023/05/24 06:14:51;;;;;;;25.52;8.93;;;;;;;8.22;100.00;102306.13;5313334;27;20032;-65
2023/05/24 06:17:23;;;;;;;30.33;9.13;;;;;;;8.33;100.00;102310.97;5311261;27;20031;-66
2023/05/24 06:19:54;;;;;;;23.15;8.05;;;;;;;8.40;100.00;102309.78;5304787;27;20045;-66
2023/05/24 06:22:29;;;;;;;28.52;8.40;;;;;;;8.60;100.00;102318.72;5306150;27;20435;-66
2023/05/24 06:25:00;;;;;;;;;;;;;;;8.70;100.00;102314.69;5318590;27;20085;-66
2023/05/24 06:27:32;;;;;;;22.17;7.93;;;;;;;8.78;100.00;102315.22;5307797;28;20755;-66
2023/05/24 06:30:03;;;;;;;26.25;9.35;;;;;;;8.89;100.00;102316.53;5308652;28;20076;-66
2023/05/24 06:32:35;;;;;;;76.75;16.35;;;;;;;9.04;100.00;102310.50;5308138;27;20473;-66
2023/05/24 06:35:07;;;;;;;47.70;12.60;;;;;;;9.19;100.00;102314.25;5300358;28;20031;-66
2023/05/24 06:37:39;;;;;;;25.73;9.23;;;;;;;9.33;100.00;102311.78;5305344;27;20031;-66
2023/05/24 06:40:11;;;;;;;22.23;8.40;;;;;;;9.50;100.00;102310.97;5319893;28;20103;-66
2023/05/24 06:42:43;;;;;;;61.03;13.75;;;;;;;9.66;100.00;102310.22;5332842;27;20031;-72
2023/05/24 06:45:14;;;;;;;32.72;10.73;;;;;;;9.78;100.00;102306.97;5308827;27;20023;-66
2023/05/24 06:47:46;;;;;;;26.92;8.95;;;;;;;9.92;100.00;102301.78;5302382;28;20107;-66
2023/05/24 06:50:17;;;;;;;26.42;9.65;;;;;;;10.00;100.00;102309.41;5311111;28;20055;-66
2023/05/24 06:52:48;;;;;;;27.10;9.32;;;;;;;10.16;100.00;102307.69;5315690;27;20104;-66
2023/05/24 06:55:20;;;;;;;23.27;8.20;;;;;;;10.27;100.00;102319.63;5311233;27;20031;-66
2023/05/24 06:57:51;;;;;;;23.38;8.48;;;;;;;10.35;100.00;102310.28;5311973;27;20111;-66
2023/05/24 07:00:23;;;;;;;22.00;9.18;;;;;;;10.42;100.00;102320.66;5326794;27;20561;-66
2023/05/24 07:02:55;;;;;;;19.15;8.90;;;;;;;10.45;100.00;102310.69;5306417;27;20026;-66
2023/05/24 07:05:26;;;;;;;21.55;8.63;;;;;;;10.49;100.00;102309.59;5311338;28;20472;-66
2023/05/24 07:07:57;;;;;;;26.10;9.40;;;;;;;10.54;100.00;102315.53;5315377;28;20464;-67
2023/05/24 07:10:29;;;;;;;24.33;9.55;;;;;;;10.65;100.00;102309.63;5316197;28;20031;-66
2023/05/24 07:13:00;;;;;;;26.52;10.63;;;;;;;10.76;100.00;102309.06;5311048;28;20028;-66
2023/05/24 07:15:32;;;;;;;20.83;9.90;;;;;;;10.89;100.00;102310.13;5305739;27;20052;-66
2023/05/24 07:18:03;;;;;;;20.92;8.57;;;;;;;11.01;100.00;102311.25;5312475;27;20034;-66
2023/05/24 07:20:34;;;;;;;25.63;9.63;;;;;;;11.14;100.00;102304.28;5308843;27;20028;-66
2023/05/24 07:23:06;;;;;;;20.75;8.60;;;;;;;11.36;100.00;102308.44;5300209;28;20500;-66
2023/05/24 07:25:38;;;;;;;21.33;9.05;;;;;;;11.49;100.00;102312.13;5303145;28;20477;-66
2023/05/24 07:28:09;;;;;;;22.17;8.68;;;;;;;11.53;100.00;102302.13;5305372;28;20435;-66
2023/05/24 07:30:41;;;;;;;20.48;8.00;;;;;;;11.58;100.00;102302.72;5299233;28;20374;-66
2023/05/24 07:33:12;;;;;;;26.67;9.50;;;;;;;11.67;100.00;102301.34;5307456;28;20446;-66
2023/05/24 07:35:49;;;;;;;18.52;7.38;;;;;;;11.67;100.00;102306.69;5315716;27;20042;-66
2023/05/24 07:38:21;;;;;;;21.17;7.32;;;;;;;11.62;100.00;102311.41;5306915;27;20294;-66
2023/05/24 07:40:52;;;;;;;18.63;7.13;;;;;;;11.62;100.00;102316.75;5309846;27;20366;-66
2023/05/24 07:43:25;;;;;;;17.58;6.97;;;;;;;11.66;100.00;102312.97;5311776;28;20019;-66
2023/05/24 07:45:57;;;;;;;19.20;7.10;;;;;;;11.72;100.00;102305.47;5303112;28;20054;-66
2023/05/24 07:48:28;;;;;;;17.58;6.57;;;;;;;11.74;100.00;102314.25;5307811;27;20107;-66
2023/05/24 07:51:00;;;;;;;15.82;5.80;;;;;;;11.72;100.00;102305.47;5303837;27;20070;-66
2023/05/24 07:53:32;;;;;;;21.92;6.43;;;;;;;11.77;100.00;102311.41;5318830;27;21131;-66
2023/05/24 07:56:05;;;;;;;15.75;5.30;;;;;;;11.79;100.00;102311.31;5308845;27;20031;-66
2023/05/24 07:58:36;;;;;;;14.52;5.45;;;;;;;11.88;100.00;102309.91;5312888;27;20032;-66
2023/05/24 08:01:07;;;;;;;16.58;5.45;;;;;;;11.87;100.00;102311.75;5311442;27;20383;-66
2023/05/24 08:03:39;;;;;;;20.55;5.97;;;;;;;11.85;100.00;102308.31;5300641;28;20027;-66
2023/05/24 08:06:11;;;;;;;17.33;5.20;;;;;;;11.93;100.00;102306.06;5304540;28;20563;-66
2023/05/24 08:08:42;;;;;;;12.65;5.25;;;;;;;12.07;100.00;102309.72;5264997;28;20024;-66
2023/05/24 08:11:13;;;;;;;13.65;5.07;;;;;;;12.21;100.00;102303.56;5267666;28;20534;-66
2023/05/24 08:13:45;;;;;;;16.23;4.75;;;;;;;12.33;100.00;102301.00;5262513;28;20505;-66
2023/05/24 08:16:17;;;;;;;14.70;5.45;;;;;;;12.50;100.00;102315.16;5272333;28;20585;-66
2023/05/24 08:18:48;;;;;;;19.58;4.97;;;;;;;12.60;100.00;102308.31;5262729;28;20120;-66
2023/05/24 08:21:20;;;;;;;32.30;7.53;;;;;;;12.65;100.00;102311.53;5266809;28;20377;-66
2023/05/24 08:23:51;;;;;;;149.35;20.25;;;;;;;12.73;100.00;102305.72;5280954;28;20062;-66
2023/05/24 08:26:23;;;;;;;21.17;4.82;;;;;;;12.72;100.00;102307.53;5275374;28;20033;-66
2023/05/24 08:28:54;;;;;;;10.48;3.55;;;;;;;12.81;100.00;102307.91;5259953;28;20028;-66
2023/05/24 08:31:26;;;;;;;14.05;4.25;;;;;;;12.91;100.00;102306.41;5262287;28;20034;-66
2023/05/24 08:33:57;;;;;;;13.00;4.22;;;;;;;13.01;100.00;102304.00;5256190;28;20032;-66
2023/05/24 08:36:28;;;;;;;12.43;4.88;;;;;;;13.06;100.00;102301.84;5268037;28;20036;-66
2023/05/24 08:39:00;;;;;;;17.73;4.53;;;;;;;13.11;100.00;102289.88;5274457;28;20048;-66
2023/05/24 08:41:36;;;;;;;15.20;4.60;;;;;;;13.16;100.00;102286.94;5272559;28;20389;-66
2023/05/24 08:44:07;;;;;;;13.88;4.60;;;;;;;13.19;100.00;102285.88;5274901;28;20033;-66
2023/05/24 08:46:38;;;;;;;12.10;3.92;;;;;;;13.28;100.00;102287.94;5272990;28;20043;-67
2023/05/24 08:49:12;;;;;;;15.38;4.50;;;;;;;13.36;100.00;102285.66;5262746;28;20032;-66
2023/05/24 08:51:44;;;;;;;17.88;5.15;;;;;;;13.59;100.00;102275.25;5258111;28;20033;-66
2023/05/24 08:54:15;;;;;;;12.75;4.15;;;;;;;13.68;100.00;102277.31;5268848;28;20035;-66
2023/05/24 08:56:47;;;;;;;14.05;4.20;;;;;;;13.87;100.00;102283.16;5263044;28;20020;-66
2023/05/24 08:59:18;;;;;;;15.25;4.50;;;;;;;13.87;100.00;102275.13;5259137;28;20360;-66
2023/05/24 09:01:53;;;;;;;15.75;4.03;;;;;;;13.99;100.00;102278.78;5262614;28;20032;-66
2023/05/24 09:04:26;;;;;;;14.45;4.10;;;;;;;14.07;100.00;102280.94;5268794;28;20040;-66
2023/05/24 09:06:58;;;;;;;14.00;4.55;;;;;;;14.05;100.00;102275.69;5280710;28;20044;-66
2023/05/24 09:09:32;;;;;;;14.82;4.35;;;;;;;13.87;100.00;102276.94;5305191;28;20114;-67
2023/05/24 09:12:07;;;;;;;15.50;4.32;;;;;;;13.92;100.00;102281.03;5310716;28;20035;-66
2023/05/24 09:14:44;;;;;;;14.82;4.57;;;;;;;13.91;100.00;102275.78;5305947;28;20064;-66
2023/05/24 09:17:15;;;;;;;18.73;5.07;;;;;;;13.91;100.00;102273.09;5311296;28;20041;-66
2023/05/24 09:19:50;;;;;;;15.13;4.22;;;;;;;14.08;100.00;102274.63;5311879;27;20417;-66
2023/05/24 09:22:24;;;;;;;12.13;4.30;;;;;;;14.22;100.00;102276.34;5318230;28;20020;-66
2023/05/24 09:25:03;;;;;;;13.25;3.80;;;;;;;14.22;100.00;102277.22;5317438;28;20051;-66
2023/05/24 09:27:35;;;;;;;10.73;4.15;;;;;;;14.41;100.00;102275.94;5302854;28;20032;-66
2023/05/24 09:30:11;;;;;;;12.02;3.95;;;;;;;14.54;100.00;102270.56;5309946;28;20037;-66
2023/05/24 09:32:55;;;;;;;17.35;4.35;;;;;;;14.61;100.00;102272.75;5305711;28;20462;-66
2023/05/24 09:35:27;;;;;;;15.18;4.07;;;;;;;14.67;100.00;102276.84;5315290;28;20088;-66
2023/05/24 09:37:59;;;;;;;14.00;4.43;;;;;;;14.65;100.00;102282.31;5310501;28;20046;-67
2023/05/24 09:40:32;;;;;;;14.15;3.90;;;;;;;14.62;100.00;102279.81;5324253;27;20019;-66
2023/05/24 09:43:07;;;;;;;10.68;3.50;;;;;;;14.68;100.00;102275.84;5313093;28;20080;-66
2023/05/24 09:45:46;;;;;;;11.23;3.40;;;;;;;14.70;100.00;102280.13;5316614;28;20076;-66
2023/05/24 09:48:19;;;;;;;8.27;3.25;;;;;;;14.92;100.00;102258.91;5312807;28;20083;-66
2023/05/24 09:51:05;;;;;;;12.33;3.93;;;;;;;15.06;100.00;102261.47;5303760;28;20150;-66
2023/05/24 09:53:36;;;;;;;12.73;3.25;;;;;;;15.03;100.00;102262.56;5322978;28;20078;-66
2023/05/24 09:56:08;;;;;;;11.65;3.47;;;;;;;15.04;100.00;102266.97;5303716;28;20390;-67
2023/05/24 09:58:41;;;;;;;10.45;3.53;;;;;;;15.17;100.00;102261.56;5306525;28;20052;-67
2023/05/24 10:01:16;;;;;;;12.10;3.15;;;;;;;15.19;100.00;102259.63;5311498;28;20020;-67
2023/05/24 10:03:55;;;;;;;12.40;3.30;;;;;;;15.27;100.00;102265.28;5308187;28;20554;-66
2023/05/24 10:06:37;;;;;;;10.93;3.53;;;;;;;15.36;100.00;102261.06;5314837;28;20122;-67
2023/05/24 10:09:09;;;;;;;10.80;3.72;;;;;;;15.49;100.00;102261.00;5310228;28;20366;-66
2023/05/24 10:11:41;;;;;;;11.20;3.45;;;;;;;15.62;100.00;102255.56;5300602;28;20028;-67
2023/05/24 10:14:13;;;;;;;10.40;3.72;;;;;;;15.71;100.00;102251.31;5308327;28;20053;-66
2023/05/24 10:16:45;;;;;;;14.55;3.63;;;;;;;15.59;100.00;102253.97;5313358;27;20032;-66
2023/05/24 10:19:17;;;;;;;10.68;3.17;;;;;;;15.68;100.00;102257.78;5314138;28;20107;-67
2023/05/24 10:21:48;;;;;;;9.75;3.53;;;;;;;15.71;100.00;102249.47;5318765;27;20477;-66
2023/05/24 10:24:25;;;;;;;11.85;3.65;;;;;;;15.68;100.00;102257.78;5317214;27;20452;-67
2023/05/24 10:26:57;;;;;;;13.98;3.88;;;;;;;15.84;100.00;102246.75;5303969;27;20028;-66
2023/05/24 10:29:44;;;;;;;9.85;3.22;;;;;;;15.97;100.00;102257.41;5305420;27;20359;-67
2023/05/24 10:32:18;;;;;;;10.73;3.40;;;;;;;16.04;100.00;102248.75;5302462;27;20047;-67
2023/05/24 10:34:50;;;;;;;10.23;2.88;;;;;;;15.96;100.00;102251.19;5303285;27;20123;-67
2023/05/24 10:37:23;;;;;;;10.77;3.70;;;;;;;16.07;100.00;102243.13;5319686;27;20081;-66
2023/05/24 10:39:55;;;;;;;14.38;3.58;;;;;;;16.22;100.00;102241.09;5315665;28;20112;-66
2023/05/24 10:42:26;;;;;;;9.95;3.33;;;;;;;16.41;100.00;102240.47;5316818;27;20064;-66
2023/05/24 10:44:58;;;;;;;10.45;2.95;;;;;;;16.64;100.00;102245.88;5315594;28;20028;-66
2023/05/24 10:47:30;;;;;;;12.50;3.45;;;;;;;16.70;100.00;102245.38;5322707;27;20019;-66
2023/05/24 10:50:16;;;;;;;11.23;3.50;;;;;;;16.59;100.00;102240.88;5307996;27;20787;-66
2023/05/24 10:52:48;;;;;;;13.90;3.38;;;;;;;16.34;100.00;102241.97;5301572;27;20115;-66
2023/05/24 10:55:19;;;;;;;11.85;3.25;;;;;;;16.27;100.00;102235.34;5321133;27;20020;-66
2023/05/24 10:57:51;;;;;;;13.77;3.55;;;;;;;16.31;100.00;102233.25;5303987;27;20167;-67
2023/05/24 11:00:24;;;;;;;11.70;3.00;;;;;;;16.39;100.00;102241.59;5314060;27;20024;-66
2023/05/24 11:03:07;;;;;;;13.55;3.63;;;;;;;16.36;100.00;102240.00;5304999;28;20086;-66
2023/05/24 11:05:51;;;;;;;9.88;3.55;;;;;;;16.45;100.00;102238.41;5314853;27;20039;-67
2023/05/24 11:08:32;;;;;;;11.75;3.42;;;;;;;16.34;100.00;102241.06;5311979;28;20039;-66
2023/05/24 11:11:09;;;;;;;13.57;3.63;;;;;;;16.42;100.00;102241.34;5311650;28;20084;-67
2023/05/24 11:13:40;;;;;;;9.68;3.47;;;;;;;16.36;100.00;102237.31;5316415;27;20030;-66
2023/05/24 11:16:34;;;;;;;10.27;3.80;;;;;;;16.40;100.00;102235.22;5310191;28;20035;-66
2023/05/24 11:19:13;;;;;;;10.63;3.30;;;;;;;16.39;100.00;102241.59;5310819;27;20466;-67
2023/05/24 11:21:46;;;;;;;14.20;3.95;;;;;;;16.31;100.00;102246.72;5309946;27;20148;-66
2023/05/24 11:24:19;;;;;;;10.30;3.22;;;;;;;16.37;100.00;102251.63;5300380;27;20088;-67
2023/05/24 11:26:51;;;;;;;8.32;3.25;;;;;;;16.35;100.00;102248.19;5315774;27;20055;-66
2023/05/24 11:29:23;;;;;;;9.20;2.80;;;;;;;16.35;100.00;102242.81;5309919;27;20032;-67
2023/05/24 11:31:56;;;;;;;15.45;3.83;;;;;;;16.38;100.00;102239.88;5312316;28;20062;-67
2023/05/24 11:34:28;;;;;;;11.13;3.30;;;;;;;16.42;100.00;102246.75;5308084;27;20085;-67
2023/05/24 11:37:02;;;;;;;10.93;3.08;;;;;;;16.51;100.00;102235.25;5317903;28;20024;-66
2023/05/24 11:39:36;;;;;;;8.45;2.80;;;;;;;16.60;100.00;102239.88;5292777;27;20178;-66
2023/05/24 11:42:07;;;;;;;13.13;3.55;;;;;;;16.62;100.00;102245.16;5309472;28;20104;-66